createdAt,value
2023-01-26T00:01:37.986Z,35.60
2023-01-26T00:04:44.013Z,35.60
2023-01-26T00:07:50.042Z,35.70
2023-01-26T00:11:02.067Z,35.60
2023-01-26T00:14:02.091Z,35.70
2023-01-26T00:17:08.118Z,35.60
2023-01-26T00:20:14.157Z,35.60
2023-01-26T00:23:20.173Z,35.60
2023-01-26T00:26:26.201Z,35.60
2023-01-26T00:29:39.840Z,35.60
2023-01-26T00:32:38.260Z,36.20
2023-01-26T00:35:57.910Z,35.60
2023-01-26T00:39:20.319Z,35.60
2023-01-26T00:42:45.982Z,35.50
2023-01-26T00:46:20.408Z,35.50
2023-01-26T00:49:46.052Z,35.50
2023-01-26T00:53:08.446Z,35.60
2023-01-26T00:56:38.469Z,35.60
2023-01-26T01:00:02.505Z,35.60
2023-01-26T01:03:32.548Z,35.60
2023-01-26T01:06:50.569Z,35.60
2023-01-26T01:10:04.245Z,35.60
2023-01-26T01:13:08.631Z,35.60
2023-01-26T01:16:26.153Z,35.60
2023-01-26T01:19:34.333Z,35.60
2023-01-26T01:22:40.363Z,35.50
2023-01-26T01:25:49.157Z,35.50
2023-01-26T01:28:55.188Z,35.50
2023-01-26T01:31:56.841Z,35.80
2023-01-26T01:35:08.838Z,35.50
2023-01-26T01:38:10.495Z,35.50
2023-01-26T01:41:16.529Z,35.60
2023-01-26T01:44:34.550Z,35.60
2023-01-26T01:47:43.629Z,35.50
2023-01-26T01:50:52.624Z,35.50
2023-01-26T01:54:04.645Z,35.50
2023-01-26T01:57:15.023Z,35.50
2023-01-26T02:00:22.713Z,35.50
2023-01-26T02:03:30.695Z,35.60
2023-01-26T02:06:39.103Z,35.50
2023-01-26T02:18:43.687Z,35.50
2023-01-26T02:39:42.042Z,35.50
2023-01-26T02:43:01.917Z,35.40
2023-01-26T02:46:14.379Z,35.50
2023-01-26T02:49:31.996Z,35.40
2023-01-26T02:52:38.007Z,35.40
2023-01-26T02:55:41.606Z,35.50
2023-01-26T02:58:56.067Z,35.40
2023-01-26T03:02:02.160Z,35.50
2023-01-26T03:05:14.471Z,35.50
2023-01-26T03:08:14.134Z,35.50
2023-01-26T03:11:20.529Z,35.50
2023-01-26T03:14:32.188Z,35.40
2023-01-26T03:17:38.210Z,35.40
2023-01-26T03:20:50.244Z,35.40
2023-01-26T03:23:56.685Z,35.50
2023-01-26T03:27:08.296Z,35.50
2023-01-26T03:30:26.725Z,35.40
2023-01-26T03:33:32.354Z,35.40
2023-01-26T03:36:38.374Z,35.40
2023-01-26T03:39:56.786Z,35.40
2023-01-26T03:43:08.428Z,35.50
2023-01-26T03:46:26.472Z,35.40
2023-01-26T03:49:38.480Z,35.40
2023-01-26T03:52:50.507Z,35.40
2023-01-26T03:56:02.532Z,35.40
2023-01-26T03:59:08.677Z,35.10
2023-01-26T04:02:26.996Z,35.00
2023-01-26T04:05:44.615Z,35.10
2023-01-26T04:08:50.638Z,35.20
2023-01-26T04:11:56.700Z,35.30
2023-01-26T04:15:08.688Z,35.40
2023-01-26T04:18:20.715Z,35.40
2023-01-26T04:21:44.745Z,35.50
2023-01-26T04:24:45.199Z,35.60
2023-01-26T04:27:51.223Z,35.60
2023-01-26T04:30:56.943Z,35.80
2023-01-26T04:34:08.848Z,35.80
2023-01-26T04:37:14.873Z,35.80
2023-01-26T04:40:21.357Z,35.80
2023-01-26T04:43:26.926Z,35.90
2023-01-26T04:46:37.052Z,35.90
2023-01-26T04:49:54.606Z,35.90
2023-01-26T04:53:03.482Z,36.00
2023-01-26T04:56:09.048Z,36.10
2023-01-26T04:59:21.550Z,36.10
2023-01-26T05:02:27.115Z,36.20
2023-01-26T05:05:37.977Z,36.20
2023-01-26T05:09:03.648Z,36.30
2023-01-26T05:12:09.671Z,36.40
2023-01-26T05:15:33.704Z,36.40
2023-01-26T06:07:00.921Z,37.00
2023-01-26T06:14:26.469Z,37.10
2023-01-26T06:17:01.654Z,36.90
2023-01-26T06:19:54.485Z,37.00
2023-01-26T06:24:05.263Z,37.00
2023-01-26T06:26:37.983Z,37.10
2023-01-26T07:04:05.863Z,36.80
2023-01-26T08:31:26.823Z,37.00
2023-01-26T08:34:04.196Z,37.00
2023-01-26T08:37:10.215Z,36.90
2023-01-26T08:48:32.284Z,36.90
2023-01-26T08:51:16.146Z,36.90
2023-01-26T08:55:10.958Z,36.70
2023-01-26T09:46:29.114Z,37.00
2023-01-26T10:05:46.267Z,36.90
2023-01-26T10:08:41.789Z,36.90
2023-01-26T10:12:14.038Z,36.90
2023-01-26T10:26:07.334Z,36.70
2023-01-26T11:00:06.086Z,36.70
2023-01-26T11:03:53.958Z,36.60
2023-01-26T11:07:24.540Z,36.50
2023-01-26T11:28:23.612Z,36.50
2023-01-26T11:35:12.785Z,36.60
2023-01-26T11:52:05.227Z,36.60
2023-01-26T11:55:22.462Z,36.50
2023-01-26T11:58:42.593Z,36.60
2023-01-26T12:10:02.796Z,36.70
2023-01-26T12:39:21.368Z,36.70
2023-01-26T12:54:59.196Z,36.60
2023-01-26T13:01:23.759Z,36.50
2023-01-26T13:04:09.303Z,36.60
2023-01-26T13:07:24.659Z,36.60
2023-01-26T13:19:51.668Z,36.80
2023-01-26T13:22:47.971Z,36.80
2023-01-26T13:39:39.342Z,36.80
2023-01-26T14:17:16.058Z,36.70
2023-01-26T14:19:56.109Z,36.80
2023-01-26T14:22:40.882Z,36.80
2023-01-26T14:25:32.707Z,36.80
2023-01-26T14:28:22.033Z,36.90
2023-01-26T14:31:08.508Z,36.90
2023-01-26T14:33:52.005Z,36.80
2023-01-26T14:36:34.031Z,36.80
2023-01-26T14:39:31.636Z,36.90
2023-01-26T14:42:09.772Z,36.80
2023-01-26T14:44:58.781Z,36.80
2023-01-26T15:23:46.158Z,36.70
2023-01-26T15:31:37.535Z,36.70
2023-01-26T16:22:22.461Z,36.80
2023-01-26T16:24:57.019Z,36.80
2023-01-26T16:27:42.359Z,36.80
2023-01-26T16:39:52.862Z,36.80
2023-01-26T17:00:14.633Z,36.60
2023-01-26T17:03:20.662Z,36.60
2023-01-26T17:06:23.415Z,36.60
2023-01-26T17:09:26.708Z,36.60
2023-01-26T17:12:29.463Z,36.60
2023-01-26T17:15:31.272Z,36.60
2023-01-26T17:18:49.608Z,36.50
2023-01-26T17:22:19.670Z,36.50
2023-01-26T17:43:49.822Z,36.60
2023-01-26T17:47:04.157Z,36.60
2023-01-26T17:50:07.879Z,36.70
2023-01-26T17:53:36.127Z,36.80
2023-01-26T17:56:37.935Z,36.70
2023-01-26T18:00:15.135Z,36.70
2023-01-26T18:03:43.999Z,36.70
2023-01-26T18:06:57.379Z,36.70
2023-01-26T18:10:10.772Z,36.70
2023-01-26T18:13:26.096Z,36.70
2023-01-26T18:16:44.140Z,36.70
2023-01-26T18:19:56.156Z,36.60
2023-01-26T18:23:02.187Z,36.60
2023-01-26T18:26:26.230Z,36.60
2023-01-26T18:29:33.920Z,36.60
2023-01-26T18:32:56.283Z,36.60
2023-01-26T18:36:03.435Z,36.60
2023-01-26T18:39:21.460Z,37.30
2023-01-26T18:42:34.356Z,36.70
2023-01-26T18:45:38.421Z,36.70
2023-01-26T18:48:45.536Z,36.70
2023-01-26T18:51:50.931Z,36.70
2023-01-26T18:55:08.637Z,36.70
2023-01-26T18:58:34.925Z,36.70
2023-01-26T19:01:57.688Z,37.40
2023-01-26T19:05:27.146Z,36.70
2023-01-26T19:08:44.614Z,36.60
2023-01-26T19:12:03.758Z,36.60
2023-01-26T19:15:28.675Z,36.50
2023-01-26T19:18:56.704Z,36.50
2023-01-26T19:22:02.733Z,36.50
2023-01-26T19:25:03.889Z,36.50
2023-01-26T19:28:05.486Z,36.40
2023-01-26T19:31:10.012Z,36.50
2023-01-26T19:34:17.182Z,36.50
2023-01-26T19:37:29.206Z,36.50
2023-01-26T19:40:34.037Z,36.50
2023-01-26T19:43:34.067Z,36.50
2023-01-26T19:46:36.477Z,36.50
2023-01-26T19:49:34.127Z,36.50
2023-01-26T19:52:37.884Z,36.50
2023-01-26T19:55:39.038Z,37.10
2023-01-26T19:58:41.392Z,36.50
2023-01-26T20:01:45.103Z,36.50
2023-01-26T20:04:51.137Z,36.50
2023-01-26T20:08:05.472Z,36.50
2023-01-26T20:11:04.363Z,36.50
2023-01-26T20:14:05.528Z,36.50
2023-01-26T20:17:10.404Z,36.50
2023-01-26T20:20:22.459Z,36.50
2023-01-26T20:23:34.475Z,36.50
2023-01-26T20:26:34.502Z,36.50
2023-01-26T20:29:39.390Z,36.40
2023-01-26T20:32:46.560Z,36.50
2023-01-26T20:35:53.715Z,36.50
2023-01-26T20:39:19.393Z,36.50
2023-01-26T20:42:38.432Z,36.50
2023-01-26T20:45:59.859Z,36.50
2023-01-26T20:57:53.601Z,36.50
2023-01-26T21:17:42.095Z,36.40
2023-01-26T21:33:42.262Z,36.30
2023-01-26T21:38:07.179Z,36.30
2023-01-26T21:49:42.415Z,36.30
2023-01-26T22:21:20.870Z,36.40
2023-01-26T22:53:19.006Z,36.30
2023-01-26T23:13:19.195Z,36.30
2023-01-26T23:45:11.775Z,36.30
2023-01-26T23:53:11.845Z,36.30
